Time;durP1;ratioP1;P1;durP2;ratioP2;P2;SDS_P1;SDS_P2;PMS_P1;PMS_P2;Temp;Humidity;BMP_temperature;BMP_pressure;BME280_temperature;BME280_humidity;BME280_pressure;Samples;Min_cycle;Max_cycle;Signal;HPM_P1;HPM_P2
2023/08/03 00:00:48;;;;;;;12.00;10.88;;;;;;;;;;5021872;28;20848;-65
2023/08/03 00:03:16;;;;;;;11.20;10.15;;;;;;;;;;5009488;28;20209;-65
2023/08/03 00:05:42;;;;;;;13.60;12.38;;;;;;;;;;4993699;28;20230;-66
2023/08/03 00:08:09;;;;;;;10.75;10.00;;;;;;;;;;5022585;28;20670;-64
2023/08/03 00:10:35;;;;;;;10.45;9.65;;;;;;;;;;5022432;28;20211;-64
2023/08/03 00:13:02;;;;;;;11.25;10.25;;;;;;;;;;5022279;28;20589;-62
2023/08/03 00:15:28;;;;;;;14.63;10.00;;;;;;;;;;5022685;28;20222;-64
2023/08/03 00:17:55;;;;;;;11.13;10.15;;;;;;;;;;5023747;28;20204;-63
2023/08/03 00:20:23;;;;;;;13.00;10.65;;;;;;;;;;5024064;28;20199;-63
2023/08/03 00:22:49;;;;;;;10.65;9.75;;;;;;;;;;5023752;28;20208;-63
2023/08/03 00:25:16;;;;;;;11.23;10.13;;;;;;;;;;5024450;28;20234;-64
2023/08/03 00:27:42;;;;;;;11.23;10.10;;;;;;;;;;5013064;28;20223;-63
2023/08/03 00:30:09;;;;;;;12.13;10.13;;;;;;;;;;5022584;28;20362;-64
2023/08/03 00:32:35;;;;;;;10.30;9.52;;;;;;;;;;5022529;28;20200;-64
2023/08/03 00:35:02;;;;;;;10.95;10.05;;;;;;;;;;5024481;28;20297;-65
2023/08/03 00:37:29;;;;;;;10.27;9.52;;;;;;;;;;5023482;28;20203;-65
2023/08/03 00:39:56;;;;;;;9.65;8.88;;;;;;;;;;5022236;28;20678;-64
2023/08/03 00:42:22;;;;;;;9.82;9.15;;;;;;;;;;5021503;28;20395;-64
2023/08/03 00:44:49;;;;;;;11.82;9.65;;;;;;;;;;5024280;28;20211;-64
2023/08/03 00:47:15;;;;;;;11.23;10.10;;;;;;;;;;5027470;28;20297;-63
2023/08/03 00:49:42;;;;;;;10.25;9.40;;;;;;;;;;5027893;28;20720;-63
2023/08/03 00:52:08;;;;;;;10.43;9.68;;;;;;;;;;5026300;28;20223;-64
2023/08/03 00:54:36;;;;;;;11.60;10.25;;;;;;;;;;5025112;28;20257;-64
2023/08/03 00:57:03;;;;;;;10.40;9.65;;;;;;;;;;5024385;28;20255;-63
2023/08/03 00:59:29;;;;;;;10.95;9.85;;;;;;;;;;5027287;28;20257;-64
2023/08/03 01:01:56;;;;;;;11.73;10.75;;;;;;;;;;5011148;28;20674;-64
2023/08/03 01:04:22;;;;;;;10.65;9.65;;;;;;;;;;5018874;28;20768;-64
2023/08/03 01:06:49;;;;;;;10.75;9.85;;;;;;;;;;5016724;28;20278;-64
2023/08/03 01:09:15;;;;;;;11.82;9.98;;;;;;;;;;5010915;28;20235;-63
2023/08/03 01:11:43;;;;;;;12.13;10.57;;;;;;;;;;5011962;28;20196;-64
2023/08/03 01:14:10;;;;;;;10.07;9.32;;;;;;;;;;5013878;28;20287;-63
2023/08/03 01:16:37;;;;;;;11.07;10.18;;;;;;;;;;5020869;28;20659;-63
2023/08/03 01:19:04;;;;;;;10.02;9.32;;;;;;;;;;5025385;28;20228;-63
2023/08/03 01:21:32;;;;;;;8.95;8.25;;;;;;;22.40;nan;94626.31;5025817;28;20196;-64
2023/08/03 01:24:00;;;;;;;10.00;9.23;;;;;;;;;;5024477;28;20654;-64
2023/08/03 01:26:27;;;;;;;9.93;8.88;;;;;;;;;;5017334;28;20228;-64
2023/08/03 01:28:53;;;;;;;11.27;10.35;;;;;;;;;;5009676;28;20208;-64
2023/08/03 01:31:20;;;;;;;10.38;9.68;;;;;;;;;;5011674;28;20258;-64
2023/08/03 01:33:47;;;;;;;10.88;9.98;;;;;;;;;;5009454;28;20212;-63
2023/08/03 01:36:13;;;;;;;12.20;10.88;;;;;;;;;;5021175;28;20203;-64
2023/08/03 01:38:40;;;;;;;10.60;9.48;;;;;;;;;;5024953;28;20211;-64
2023/08/03 01:41:07;;;;;;;12.23;9.73;;;;;;;;;;5026263;28;20670;-64
2023/08/03 01:43:34;;;;;;;10.45;9.55;;;;;;;;;;5025427;28;20297;-65
2023/08/03 01:46:00;;;;;;;10.45;9.55;;;;;;;;;;5021000;28;20219;-64
2023/08/03 01:48:27;;;;;;;12.32;10.18;;;;;;;;;;5023626;28;20200;-64
2023/08/03 01:50:53;;;;;;;10.27;9.48;;;;;;;;;;5014053;28;20304;-63
2023/08/03 01:53:20;;;;;;;10.82;9.82;;;;;;;;;;5011252;28;20298;-63
2023/08/03 01:55:46;;;;;;;9.90;9.05;;;;;;;;;;5022128;28;20223;-63
2023/08/03 01:58:14;;;;;;;11.57;9.63;;;;;;;;;;5022962;28;20693;-63
2023/08/03 02:00:41;;;;;;;10.85;9.88;;;;;;;;;;5026533;28;20281;-63
2023/08/03 02:03:07;;;;;;;9.90;9.02;;;;;;;;;;5024437;28;20661;-63
2023/08/03 02:05:34;;;;;;;9.90;9.18;;;;;;;;;;5025479;28;20251;-64
2023/08/03 02:08:00;;;;;;;10.27;9.63;;;;;;;;;;5024343;28;20231;-64
2023/08/03 02:10:27;;;;;;;10.32;9.20;;;;;;;;;;5025191;28;20204;-64
2023/08/03 02:12:53;;;;;;;10.85;10.05;;;;;;;;;;5025016;28;20196;-63
2023/08/03 02:15:21;;;;;;;11.95;10.93;;;;;;;;;;5025484;28;20309;-64
2023/08/03 02:17:47;;;;;;;10.70;9.85;;;;;;;;;;5024306;28;20240;-64
2023/08/03 02:20:14;;;;;;;10.10;9.43;;;;;;;;;;5025204;28;20751;-63
2023/08/03 02:22:40;;;;;;;10.75;9.77;;;;;;;;;;5025155;28;20211;-64
2023/08/03 02:25:07;;;;;;;11.15;10.35;;;;;;;;;;5024139;28;20251;-64
2023/08/03 02:27:33;;;;;;;11.10;10.32;;;;;;;;;;5025948;28;20277;-64
2023/08/03 02:30:00;;;;;;;10.70;10.00;;;;;;;;;;5025128;28;20673;-64
2023/08/03 02:32:28;;;;;;;11.52;10.18;;;;;;;;;;5024933;28;20210;-64
2023/08/03 02:34:54;;;;;;;12.93;10.50;;;;;;;;;;5024585;28;20204;-63
2023/08/03 02:37:21;;;;;;;10.48;9.75;;;;;;;;;;5023032;28;20283;-63
2023/08/03 02:39:47;;;;;;;14.00;10.45;;;;;;;;;;5024202;28;20260;-63
2023/08/03 02:42:13;;;;;;;11.00;9.93;;;;;;;;;;5024772;28;20232;-64
2023/08/03 02:44:40;;;;;;;13.18;10.68;;;;;;;;;;5023431;28;20253;-64
2023/08/03 02:47:07;;;;;;;11.98;10.98;;;;;;;;;;5023607;28;20906;-64
2023/08/03 02:49:35;;;;;;;11.02;10.02;;;;;;;;;;5023625;28;20319;-64
2023/08/03 02:52:01;;;;;;;11.70;10.30;;;;;;;;;;5023648;28;20227;-63
2023/08/03 02:54:28;;;;;;;11.63;9.45;;;;;;;;;;5023959;28;20277;-64
2023/08/03 02:56:54;;;;;;;10.38;9.38;;;;;;;;;;5024466;28;20196;-63
2023/08/03 02:59:21;;;;;;;11.55;10.55;;;;;;;;;;5023784;28;20223;-64
2023/08/03 03:01:47;;;;;;;11.50;10.57;;;;;;;;;;5024826;28;20208;-64
2023/08/03 03:04:14;;;;;;;11.00;10.20;;;;;;;;;;5024909;28;20309;-64
2023/08/03 03:06:42;;;;;;;12.00;10.80;;;;;;;;;;5026165;28;20231;-64
2023/08/03 03:09:08;;;;;;;11.90;10.30;;;;;;;;;;5024644;28;20204;-63
2023/08/03 03:11:35;;;;;;;10.73;9.90;;;;;;;;;;5025694;28;20208;-63
2023/08/03 03:14:01;;;;;;;10.23;9.52;;;;;;;;;;5025068;28;20207;-64
2023/08/03 03:16:28;;;;;;;11.18;10.27;;;;;;;;;;5024759;28;20196;-64
2023/08/03 03:18:54;;;;;;;10.43;9.57;;;;;;;;;;5025330;28;20261;-63
2023/08/03 03:21:21;;;;;;;11.80;10.57;;;;;;;;;;5023142;28;20239;-63
2023/08/03 03:23:48;;;;;;;10.27;9.35;;;;;;;;;;5022755;28;20207;-63
2023/08/03 03:26:15;;;;;;;11.02;9.85;;;;;;;;;;5024693;28;20255;-63
2023/08/03 03:28:41;;;;;;;10.75;9.77;;;;;;;;;;5022148;28;20200;-63
2023/08/03 03:31:08;;;;;;;10.77;9.75;;;;;;;;;;5024010;28;20235;-62
2023/08/03 03:33:34;;;;;;;14.15;10.57;;;;;;;;;;5023637;28;20227;-63
2023/08/03 03:36:01;;;;;;;10.18;9.27;;;;;;;;;;5024334;28;20258;-63
2023/08/03 03:38:27;;;;;;;11.65;10.75;;;;;;;;;;5023187;28;20241;-63
2023/08/03 03:40:55;;;;;;;10.55;9.45;;;;;;;;;;5023938;28;20215;-63
2023/08/03 03:43:21;;;;;;;13.02;10.40;;;;;;;;;;5024386;28;20211;-63
2023/08/03 03:45:48;;;;;;;11.02;9.70;;;;;;;;;;5023203;28;20247;-63
2023/08/03 03:48:14;;;;;;;11.20;10.10;;;;;;;;;;5023762;28;20636;-63
2023/08/03 03:50:41;;;;;;;11.57;10.45;;;;;;;;;;5024419;28;20223;-64
2023/08/03 03:53:07;;;;;;;11.10;10.18;;;;;;;;;;5022900;28;20795;-63
2023/08/03 03:55:34;;;;;;;9.43;8.75;;;;;;;;;;5023411;28;20227;-64
2023/08/03 03:58:02;;;;;;;17.17;9.52;;;;;;;;;;5023280;28;20223;-64
2023/08/03 04:00:29;;;;;;;13.05;10.18;;;;;;;;;;5023730;28;20212;-63
2023/08/03 04:02:55;;;;;;;11.02;10.05;;;;;;;;;;5023112;28;20230;-64
2023/08/03 04:05:22;;;;;;;10.60;9.63;;;;;;;;;;5023852;28;20235;-64
2023/08/03 04:07:48;;;;;;;10.90;10.18;;;;;;;;;;5023628;28;20208;-64
2023/08/03 04:10:15;;;;;;;11.43;10.00;;;;;;;;;;5023605;28;20203;-64
2023/08/03 04:12:42;;;;;;;9.95;9.13;;;;;;;;;;5024147;28;20250;-64
2023/08/03 04:15:10;;;;;;;9.65;8.88;;;;;;;;;;5023179;28;20254;-64
2023/08/03 04:17:38;;;;;;;10.02;9.05;;;;;;;;;;5023032;28;20231;-63
2023/08/03 04:20:05;;;;;;;12.80;9.18;;;;;;;;;;5024741;28;20283;-64
2023/08/03 04:22:31;;;;;;;10.20;8.48;;;;;;;;;;5027364;28;20203;-64
2023/08/03 04:24:57;;;;;;;10.77;8.35;;;;;;;;;;5027783;28;20289;-64
2023/08/03 04:27:24;;;;;;;20.70;18.65;;;;;;;;;;5027192;28;20223;-64
2023/08/03 04:29:50;;;;;;;19.00;13.93;;;;;;;;;;5027068;28;20552;-64
2023/08/03 04:32:18;;;;;;;10.82;9.85;;;;;;;;;;5027558;28;20243;-64
2023/08/03 04:34:45;;;;;;;29.85;17.73;;;;;;;;;;5027610;28;20207;-64
2023/08/03 04:37:11;;;;;;;12.15;11.18;;;;;;;;;;5027328;28;20243;-64
2023/08/03 04:39:37;;;;;;;10.18;9.32;;;;;;;;;;5026398;28;20239;-64
2023/08/03 04:42:04;;;;;;;12.25;9.15;;;;;;;;;;5027340;28;20277;-64
2023/08/03 04:44:30;;;;;;;11.07;7.70;;;;;;;;;;5027171;28;20257;-64
2023/08/03 04:46:57;;;;;;;9.32;8.63;;;;;;;;;;5026231;28;20226;-65
2023/08/03 04:49:25;;;;;;;23.13;20.50;;;;;;;;;;5026269;28;20248;-64
2023/08/03 04:51:52;;;;;;;24.58;21.98;;;;;;;29.83;nan;94743.88;5025671;28;20302;-64
2023/08/03 04:54:19;;;;;;;17.27;15.52;;;;;;;;;;5027143;28;20238;-65
2023/08/03 04:56:45;;;;;;;9.85;8.88;;;;;;;;;;5027057;28;20294;-64
2023/08/03 04:59:12;;;;;;;9.32;8.63;;;;;;;;;;5025570;28;20208;-64
2023/08/03 05:01:38;;;;;;;9.48;8.73;;;;;;;;;;5026797;28;20216;-64
2023/08/03 05:04:05;;;;;;;10.10;8.60;;;;;;;;;;5026416;28;20309;-64
2023/08/03 05:06:32;;;;;;;11.05;9.15;;;;;;;;;;5026055;28;20242;-64
2023/08/03 05:08:59;;;;;;;10.45;9.48;;;;;;;;;;5026925;28;20228;-66
2023/08/03 05:11:26;;;;;;;13.90;9.50;;;;;;;;;;5026878;28;20238;-65
2023/08/03 05:13:52;;;;;;;9.43;8.70;;;;;;;;;;5026827;28;20218;-64
2023/08/03 05:16:24;;;;;;;10.27;9.07;;;;;;;;;;5026554;28;20200;-65
2023/08/03 05:18:50;;;;;;;10.45;9.65;;;;;;;;;;5025660;28;20666;-65
2023/08/03 05:21:17;;;;;;;9.77;9.00;;;;;;;;;;5026572;28;20700;-65
2023/08/03 05:23:45;;;;;;;10.48;9.43;;;;;;;;;;5026005;28;20277;-65
2023/08/03 05:26:11;;;;;;;14.52;9.70;;;;;;;;;;5026462;28;20273;-64
2023/08/03 05:28:38;;;;;;;10.80;9.77;;;;;;;;;;5026385;28;20204;-65
2023/08/03 05:31:05;;;;;;;10.18;9.35;;;;;;;;;;5024883;28;20199;-65
2023/08/03 05:33:33;;;;;;;9.23;8.45;;;;;;;;;;5024889;28;20231;-65
2023/08/03 05:36:00;;;;;;;10.18;9.32;;;;;;;;;;5026902;28;20309;-65
2023/08/03 05:38:26;;;;;;;12.93;9.70;;;;;;;;;;5022582;28;20240;-65
2023/08/03 05:40:54;;;;;;;10.55;9.23;;;;;;;;;;5025398;28;20257;-65
2023/08/03 05:43:24;;;;;;;11.93;10.02;;;;;;;;;;5026667;28;20284;-64
2023/08/03 05:45:53;;;;;;;10.30;9.57;;;;;;;;;;5026056;28;20277;-65
2023/08/03 05:48:20;;;;;;;9.80;9.00;;;;;;;;;;5026785;28;20277;-65
2023/08/03 05:50:47;;;;;;;12.02;10.18;;;;;;;;;;5026539;28;20208;-65
2023/08/03 05:53:14;;;;;;;10.90;10.05;;;;;;;;;;5024855;28;20227;-65
2023/08/03 05:55:41;;;;;;;14.50;9.77;;;;;;;29.41;nan;94781.00;5026660;28;20203;-65
2023/08/03 05:58:11;;;;;;;9.73;8.85;;;;;;;;;;5025571;28;20233;-65
2023/08/03 06:00:38;;;;;;;10.43;9.63;;;;;;;;;;5025343;28;20199;-65
2023/08/03 06:03:04;;;;;;;11.40;10.40;;;;;;;;;;5025067;28;20282;-65
2023/08/03 06:05:41;;;;;;;10.48;9.38;;;;;;;;;;5025239;28;20199;-65
2023/08/03 06:08:11;;;;;;;12.40;9.95;;;;;;;;;;5025480;28;20610;-65
2023/08/03 06:10:37;;;;;;;22.75;15.63;;;;;;;;;;5024722;28;20296;-66
2023/08/03 06:13:03;;;;;;;19.45;15.52;;;;;;;;;;5026230;28;20617;-66
2023/08/03 06:15:32;;;;;;;23.00;16.17;;;;;;;37.17;nan;94776.50;5024801;28;20208;-66
2023/08/03 06:18:03;;;;;;;38.63;26.30;;;;;;;40.47;nan;94773.19;5025719;28;20223;-66
2023/08/03 06:20:29;;;;;;;19.73;14.35;;;;;;;43.03;nan;94759.31;5024580;28;20712;-65
2023/08/03 06:22:56;;;;;;;14.10;11.57;;;;;;;44.76;nan;94764.94;5025869;28;20208;-65
2023/08/03 06:25:23;;;;;;;13.20;11.05;;;;;;;45.81;nan;94753.25;5024647;28;20199;-65
2023/08/03 06:27:50;;;;;;;11.57;10.15;;;;;;;46.86;nan;94758.03;5025229;28;20796;-66
2023/08/03 06:30:18;;;;;;;10.65;9.68;;;;;;;47.81;nan;94757.94;5025396;28;20341;-66
2023/08/03 06:32:46;;;;;;;10.05;9.13;;;;;;;48.48;nan;94755.81;5024666;28;20203;-66
2023/08/03 06:35:25;;;;;;;13.00;9.48;;;;;;;48.85;nan;94749.50;5025710;28;20203;-65
2023/08/03 06:37:53;;;;;;;12.38;9.75;;;;;;;49.58;nan;94762.09;5026067;28;20294;-67
2023/08/03 06:40:20;;;;;;;11.48;9.05;;;;;;;50.15;nan;94743.50;5024514;28;20674;-66
2023/08/03 06:42:47;;;;;;;9.90;8.77;;;;;;;50.71;nan;94763.75;5025182;28;20257;-66
2023/08/03 06:45:13;;;;;;;11.05;8.18;;;;;;;51.17;nan;94757.91;5022587;28;20277;-66
2023/08/03 06:47:40;;;;;;;10.20;9.15;;;;;;;50.85;nan;94759.03;5025248;28;20219;-66
2023/08/03 06:50:09;;;;;;;11.00;9.07;;;;;;;50.62;nan;94771.03;5025806;28;20225;-66
2023/08/03 06:52:36;;;;;;;10.98;8.82;;;;;;;50.89;nan;94762.72;5025671;28;20245;-66
2023/08/03 06:55:03;;;;;;;10.18;9.05;;;;;;;50.71;nan;94755.63;5027088;28;20206;-66
2023/08/03 06:57:29;;;;;;;11.18;9.35;;;;;;;51.33;nan;94753.66;5014959;28;20192;-67
2023/08/03 06:59:57;;;;;;;9.43;8.82;;;;;;;51.69;nan;94749.91;5011774;28;20196;-67
2023/08/03 07:02:25;;;;;;;12.07;10.32;;;;;;;51.93;nan;94739.41;5012185;28;20211;-67
2023/08/03 07:04:51;;;;;;;9.63;8.82;;;;;;;51.88;nan;94744.16;5015987;28;20227;-66
2023/08/03 07:07:19;;;;;;;9.73;9.02;;;;;;;51.80;nan;94736.81;5026702;28;20215;-67
2023/08/03 07:09:48;;;;;;;12.43;10.02;;;;;;;51.76;nan;94739.38;5029050;28;20207;-66
2023/08/03 07:12:16;;;;;;;10.10;9.20;;;;;;;51.91;nan;94738.91;5032400;28;20271;-67
2023/08/03 07:14:43;;;;;;;16.67;9.18;;;;;;;51.21;nan;94736.41;5024472;28;20740;-67
2023/08/03 07:17:09;;;;;;;12.93;10.05;;;;;;;51.64;nan;94742.72;5020733;28;20202;-66
2023/08/03 07:19:36;;;;;;;11.38;8.98;;;;;;;51.95;nan;94739.09;5007852;28;20675;-67
2023/08/03 07:22:03;;;;;;;10.98;9.98;;;;;;;51.28;nan;94731.34;5020457;28;20230;-67
2023/08/03 07:24:33;;;;;;;10.57;9.18;;;;;;;51.75;nan;94739.69;5024453;28;20206;-67
2023/08/03 07:27:01;;;;;;;10.05;9.15;;;;;;;51.11;nan;94744.81;5024383;28;20254;-66
2023/08/03 07:29:28;;;;;;;16.58;8.27;;;;;;;51.53;nan;94730.56;5016464;28;20200;-66
2023/08/03 07:31:55;;;;;;;10.68;9.68;;;;;;;51.73;nan;94734.59;5008711;28;20689;-66
2023/08/03 07:34:21;;;;;;;12.10;11.00;;;;;;;50.54;nan;94733.88;4995902;28;20211;-66
2023/08/03 07:36:52;;;;;;;10.93;10.23;;;;;;;;;;5012560;28;20220;-65
2023/08/03 07:39:18;;;;;;;9.73;8.75;;;;;;;48.89;nan;94734.31;5009572;28;20199;-66
2023/08/03 07:41:46;;;;;;;17.35;10.27;;;;;;;48.03;nan;94727.69;5009439;28;20239;-66
2023/08/03 07:44:13;;;;;;;21.27;19.15;;;;;;;48.05;nan;94720.13;5019126;28;20281;-66
2023/08/03 07:46:40;;;;;;;12.25;9.95;;;;;;;49.01;nan;94721.13;5024353;28;20288;-66
2023/08/03 07:49:07;;;;;;;17.42;13.13;;;;;;;49.70;nan;94721.84;5023997;28;20313;-66
2023/08/03 07:51:33;;;;;;;15.57;14.18;;;;;;;50.01;nan;94721.13;5016569;28;20265;-67
2023/08/03 07:54:00;;;;;;;19.52;12.45;;;;;;;50.32;nan;94730.09;5012060;28;20203;-66
2023/08/03 07:56:27;;;;;;;10.73;9.63;;;;;;;51.92;nan;94734.28;5027056;28;20630;-67
2023/08/03 07:58:55;;;;;;;16.08;13.48;;;;;;;51.91;nan;94728.06;5028426;28;20688;-66
2023/08/03 08:01:22;;;;;;;18.15;12.57;;;;;;;51.42;nan;94721.19;5027640;28;20292;-66
2023/08/03 08:03:50;;;;;;;12.52;10.90;;;;;;;51.13;nan;94716.31;5028222;28;20238;-66
2023/08/03 08:06:18;;;;;;;12.55;11.25;;;;;;;51.67;nan;94706.88;5027954;28;20629;-67
2023/08/03 08:08:46;;;;;;;12.23;11.07;;;;;;;51.99;nan;94723.75;5028109;28;20230;-67
2023/08/03 08:11:14;;;;;;;12.13;11.02;;;;;;;51.43;nan;94717.34;5027931;28;20281;-65
2023/08/03 08:13:41;;;;;;;11.80;10.65;;;;;;;50.95;nan;94720.09;5027549;28;20230;-65
2023/08/03 08:16:11;;;;;;;11.48;10.60;;;;;;;50.20;nan;94712.84;5027876;28;20653;-64
2023/08/03 08:18:39;;;;;;;15.65;13.23;;;;;;;49.49;nan;94715.28;5027391;28;20223;-65
2023/08/03 08:21:07;;;;;;;12.50;11.45;;;;;;;49.19;nan;94714.03;5021469;28;20569;-67
2023/08/03 08:23:34;;;;;;;11.60;10.60;;;;;;;50.88;nan;94734.06;5015428;28;20280;-66
2023/08/03 08:26:02;;;;;;;16.90;10.70;;;;;;;50.46;nan;94710.31;5013438;28;20207;-66
2023/08/03 08:28:29;;;;;;;11.77;10.88;;;;;;;50.10;nan;94710.38;5028723;28;20282;-66
2023/08/03 08:30:56;;;;;;;12.48;11.20;;;;;;;49.74;nan;94705.03;5027838;28;20203;-66
2023/08/03 08:33:24;;;;;;;10.00;9.23;;;;;;;50.74;nan;94727.16;5026779;28;20231;-66
2023/08/03 08:35:51;;;;;;;9.48;8.45;;;;;;;52.16;nan;94704.78;5028145;28;20249;-66
2023/08/03 08:38:17;;;;;;;9.48;8.60;;;;;;;50.60;nan;94711.03;5025517;28;20681;-66
2023/08/03 08:40:45;;;;;;;38.13;12.48;;;;;;;50.24;nan;94652.44;5028239;28;20677;-66
2023/08/03 08:43:12;;;;;;;9.98;9.15;;;;;;;50.03;nan;94698.09;5026778;28;20203;-66
2023/08/03 08:45:39;;;;;;;10.43;9.43;;;;;;;49.72;nan;94698.03;5028245;28;20211;-66
2023/08/03 08:48:06;;;;;;;9.82;9.00;;;;;;;49.94;nan;94651.31;5021168;28;20609;-65
2023/08/03 08:50:34;;;;;;;9.43;8.68;;;;;;;50.08;nan;94686.34;5011529;28;20253;-66
2023/08/03 08:53:01;;;;;;;10.13;9.20;;;;;;;50.52;nan;94687.41;5011941;28;20267;-67
2023/08/03 08:55:31;;;;;;;9.55;8.65;;;;;;;50.45;nan;94687.06;5014909;28;20226;-66
2023/08/03 08:57:59;;;;;;;9.13;8.43;;;;;;;50.38;nan;94688.31;5015384;28;20195;-66
2023/08/03 09:00:27;;;;;;;9.20;8.35;;;;;;;47.40;nan;94690.38;5023624;28;20203;-67
2023/08/03 09:02:55;;;;;;;9.27;8.57;;;;;;;46.64;nan;94693.97;5027319;28;20232;-66
2023/08/03 09:05:23;;;;;;;9.18;8.63;;;;;;;46.35;nan;94704.75;5026596;28;20314;-65
2023/08/03 09:08:02;;;;;;;10.10;9.20;;;;;;;46.67;nan;94690.72;5026389;28;20705;-65
2023/08/03 09:10:29;;;;;;;9.48;8.88;;;;;;;47.75;nan;94683.69;5023648;28;20200;-66
2023/08/03 09:12:55;;;;;;;9.68;8.85;;;;;;;47.65;nan;94684.63;5026713;28;20210;-65
2023/08/03 09:15:37;;;;;;;10.40;9.38;;;;;;;47.10;nan;94682.72;5027188;28;20211;-66
2023/08/03 09:18:04;;;;;;;101.78;15.02;;;;;;;;;;5026434;28;20686;-66
2023/08/03 09:20:31;;;;;;;10.57;9.77;;;;;;;47.56;nan;94675.63;5026535;28;20199;-67
2023/08/03 09:23:00;;;;;;;10.63;9.25;;;;;;;45.36;nan;94678.06;5026362;28;20197;-65
2023/08/03 09:25:27;;;;;;;9.73;9.18;;;;;;;42.90;nan;94684.91;5027437;28;20196;-66
2023/08/03 09:27:56;;;;;;;10.65;9.80;;;;;;;41.44;nan;94682.75;5026309;28;20649;-66
2023/08/03 09:30:24;;;;;;;12.18;10.07;;;;;;;40.89;nan;94697.06;5026210;28;20208;-65
2023/08/03 09:32:51;;;;;;;10.55;9.55;;;;;;;40.70;nan;94671.75;5025122;28;20200;-65
2023/08/03 09:35:19;;;;;;;11.25;9.93;;;;;;;39.50;nan;94673.13;5025815;28;20581;-66
2023/08/03 09:37:46;;;;;;;11.18;10.15;;;;;;;37.62;nan;94682.28;5026075;28;20200;-65
2023/08/03 09:40:17;;;;;;;14.23;10.43;;;;;;;;;;5025691;28;20295;-66
2023/08/03 09:42:44;;;;;;;11.45;10.45;;;;;;;37.50;nan;94683.31;5023422;28;20218;-64
2023/08/03 09:45:11;;;;;;;16.52;9.95;;;;;;;37.53;nan;94666.97;5024327;28;20199;-64
2023/08/03 09:47:39;;;;;;;10.38;9.57;;;;;;;37.53;nan;94672.25;5024848;28;20247;-65
2023/08/03 09:50:07;;;;;;;11.07;10.07;;;;;;;37.06;nan;94672.91;5017754;28;20196;-66
2023/08/03 09:52:43;;;;;;;49.78;11.95;;;;;;;36.71;nan;94659.44;5010235;28;20219;-66
2023/08/03 09:55:13;;;;;;;10.95;9.90;;;;;;;35.77;nan;94663.25;5009785;28;20283;-66
2023/08/03 09:57:44;;;;;;;56.90;14.80;;;;;;;35.39;nan;94659.81;5012853;28;20215;-65
2023/08/03 10:00:13;;;;;;;36.85;12.93;;;;;;;35.30;nan;94661.13;5013269;28;20240;-65
2023/08/03 10:02:44;;;;;;;13.70;11.77;;;;;;;;;;5024051;28;20196;-65
2023/08/03 10:05:12;;;;;;;12.27;11.05;;;;;;;;;;5026406;28;20313;-66
2023/08/03 10:07:45;;;;;;;11.50;10.50;;;;;;;;;;5026068;28;20701;-66
2023/08/03 10:10:12;;;;;;;13.02;11.25;;;;;;;;;;5015377;28;20231;-64
2023/08/03 10:12:40;;;;;;;125.43;21.73;;;;;;;;;;5012975;28;20670;-65
2023/08/03 10:15:10;;;;;;;12.55;11.20;;;;;;;34.68;nan;94646.75;5010125;28;20196;-65
2023/08/03 10:17:38;;;;;;;16.92;12.68;;;;;;;34.77;nan;94640.22;5012993;28;20191;-66
2023/08/03 10:20:08;;;;;;;13.75;12.05;;;;;;;34.74;nan;94630.91;5025694;28;20207;-64
2023/08/03 10:22:36;;;;;;;16.55;12.43;;;;;;;34.73;nan;94633.75;5013816;28;20213;-65
2023/08/03 10:25:16;;;;;;;12.45;11.35;;;;;;;34.69;nan;94624.63;5009537;28;20228;-65
2023/08/03 10:27:42;;;;;;;11.88;10.93;;;;;;;;;;5012459;28;20236;-66
2023/08/03 10:30:10;;;;;;;11.65;10.68;;;;;;;;;;5014257;28;20298;-66
2023/08/03 10:32:37;;;;;;;12.18;10.93;;;;;;;;;;5012772;28;20203;-65
2023/08/03 10:35:18;;;;;;;11.98;11.02;;;;;;;;;;5013467;28;20300;-65
2023/08/03 10:37:46;;;;;;;11.20;10.35;;;;;;;;;;5022872;28;20305;-64
2023/08/03 10:40:22;;;;;;;15.75;11.02;;;;;;;;;;5017222;28;20208;-65
2023/08/03 10:43:07;;;;;;;11.85;11.02;;;;;;;;;;5015958;28;20281;-65
2023/08/03 10:45:36;;;;;;;11.32;10.38;;;;;;;;;;5022848;28;20238;-65
2023/08/03 10:48:17;;;;;;;11.93;10.75;;;;;;;;;;5024530;28;20286;-65
2023/08/03 10:51:00;;;;;;;11.48;10.60;;;;;;;;;;5027088;28;20258;-65
2023/08/03 10:53:26;;;;;;;18.63;12.10;;;;;;;;;;5020395;28;20733;-65
2023/08/03 10:55:56;;;;;;;11.93;11.02;;;;;;;;;;5018670;28;20242;-66
2023/08/03 10:58:23;;;;;;;11.02;10.07;;;;;;;;;;5025644;28;20231;-66
2023/08/03 11:00:50;;;;;;;10.57;9.75;;;;;;;;;;5024978;28;20227;-66
2023/08/03 11:03:17;;;;;;;9.93;9.35;;;;;;;;;;5025399;28;20247;-66
2023/08/03 11:05:44;;;;;;;12.65;9.63;;;;;;;;;;5023513;28;20208;-65
2023/08/03 11:08:10;;;;;;;9.98;9.27;;;;;;;;;;5020965;28;20224;-66
2023/08/03 11:10:37;;;;;;;11.90;10.85;;;;;;;;;;5025767;28;20681;-65
2023/08/03 11:13:03;;;;;;;11.43;10.27;;;;;;;;;;5024771;28;20599;-66
2023/08/03 11:15:30;;;;;;;11.52;10.60;;;;;;;;;;5025228;28;20215;-64
2023/08/03 11:17:59;;;;;;;11.43;10.57;;;;;;;;;;5024050;28;20253;-66
2023/08/03 11:20:25;;;;;;;12.43;11.20;;;;;;;;;;5022877;28;20216;-65
2023/08/03 11:22:52;;;;;;;12.05;11.10;;;;;;;;;;5025292;28;20219;-65
2023/08/03 11:25:19;;;;;;;11.60;10.77;;;;;;;33.74;nan;94573.34;5024109;28;20206;-65
2023/08/03 11:27:46;;;;;;;10.40;9.45;;;;;;;;;;5024066;28;20227;-65
2023/08/03 11:30:12;;;;;;;16.08;9.57;;;;;;;;;;5020664;28;20293;-65
2023/08/03 11:32:40;;;;;;;10.50;9.75;;;;;;;;;;5013104;28;20659;-66
2023/08/03 11:35:10;;;;;;;10.00;9.38;;;;;;;34.18;nan;94567.38;5010717;28;20203;-66
2023/08/03 11:37:37;;;;;;;7.20;6.78;;;;;;;;;;5011755;28;20589;-64
2023/08/03 11:40:05;;;;;;;10.45;9.63;;;;;;;;;;5013445;28;20278;-67
2023/08/03 11:42:34;;;;;;;10.90;8.98;;;;;;;33.73;nan;94554.06;5009908;28;20346;-67
2023/08/03 11:45:01;;;;;;;9.25;8.52;;;;;;;;;;5010551;28;20258;-67
2023/08/03 11:47:40;;;;;;;7.18;6.68;;;;;;;;;;5010708;28;20616;-66
2023/08/03 11:50:09;;;;;;;8.23;7.18;;;;;;;;;;5010691;28;20262;-65
2023/08/03 11:52:36;;;;;;;7.47;6.88;;;;;;;33.40;nan;94548.06;5012156;28;20280;-66
2023/08/03 11:55:03;;;;;;;13.02;8.32;;;;;;;33.22;nan;94542.53;5009607;28;20206;-66
2023/08/03 12:00:14;;;;;;;9.57;8.85;;;;;;;;;;5025301;28;20680;-67
2023/08/03 12:02:41;;;;;;;6.75;6.28;;;;;;;;;;5023376;28;20239;-66
2023/08/03 12:05:09;;;;;;;8.25;7.35;;;;;;;;;;5023228;28;20235;-64
2023/08/03 12:07:35;;;;;;;10.43;8.70;;;;;;;;;;5024821;28;20249;-66
2023/08/03 12:10:09;;;;;;;10.32;8.05;;;;;;;;;;5024208;28;20243;-66
2023/08/03 12:12:36;;;;;;;7.93;7.30;;;;;;;33.84;nan;94539.50;5024226;28;20261;-66
2023/08/03 12:15:02;;;;;;;8.82;6.70;;;;;;;;;;5024467;28;20203;-66
2023/08/03 12:17:29;;;;;;;11.98;7.40;;;;;;;;;;5023963;28;20204;-66
2023/08/03 12:19:55;;;;;;;7.25;6.85;;;;;;;;;;5025122;28;20219;-65
2023/08/03 12:22:23;;;;;;;7.47;6.97;;;;;;;;;;5024187;28;20215;-66
2023/08/03 12:24:49;;;;;;;10.07;6.63;;;;;;;;;;5023805;28;20227;-66
2023/08/03 12:27:16;;;;;;;7.57;6.95;;;;;;;;;;5024509;28;20239;-65
2023/08/03 12:29:42;;;;;;;7.78;6.95;;;;;;;;;;5023617;28;20311;-62
2023/08/03 12:32:09;;;;;;;7.45;6.88;;;;;;;;;;5025467;28;20258;-66
2023/08/03 12:34:35;;;;;;;6.60;6.15;;;;;;;;;;5024249;28;20227;-65
2023/08/03 12:37:02;;;;;;;7.20;6.60;;;;;;;;;;5024052;28;20293;-66
2023/08/03 12:39:30;;;;;;;6.47;6.15;;;;;;;33.73;nan;94521.63;5023959;28;20239;-66
2023/08/03 12:41:56;;;;;;;7.10;6.32;;;;;;;33.46;nan;94531.41;5016272;28;20208;-65
2023/08/03 12:44:24;;;;;;;6.55;6.10;;;;;;;;;;5026853;28;20261;-65
2023/08/03 12:46:51;;;;;;;6.88;6.25;;;;;;;;;;5027769;28;20199;-66
2023/08/03 12:49:18;;;;;;;7.10;6.55;;;;;;;;;;5027931;28;20282;-66
2023/08/03 12:51:45;;;;;;;7.75;6.75;;;;;;;34.11;nan;94529.69;5027827;28;20781;-66
2023/08/03 12:54:12;;;;;;;6.72;6.20;;;;;;;;;;5022334;28;20238;-66
2023/08/03 12:56:40;;;;;;;7.72;7.07;;;;;;;;;;5012122;28;20200;-67
2023/08/03 12:59:07;;;;;;;7.70;6.95;;;;;;;;;;5014984;28;20211;-67
2023/08/03 13:01:34;;;;;;;7.07;6.57;;;;;;;;;;5011199;28;20224;-66
2023/08/03 13:04:01;;;;;;;7.57;6.28;;;;;;;;;;5016022;28;20293;-67
2023/08/03 13:06:28;;;;;;;5.57;5.18;;;;;;;;;;5012983;28;20689;-67
2023/08/03 13:08:54;;;;;;;5.75;5.35;;;;;;;;;;5014208;28;20220;-65
2023/08/03 13:11:21;;;;;;;6.65;5.97;;;;;;;;;;5013710;28;20782;-66
2023/08/03 13:13:48;;;;;;;7.38;5.97;;;;;;;;;;5021110;28;20300;-66
2023/08/03 13:16:15;;;;;;;5.70;4.88;;;;;;;;;;5028153;28;20642;-66
2023/08/03 13:18:41;;;;;;;9.02;5.93;;;;;;;;;;5028268;28;20292;-65
2023/08/03 13:21:11;;;;;;;6.05;5.25;;;;;;;;;;5025898;28;20274;-66
2023/08/03 13:23:38;;;;;;;10.02;5.43;;;;;;;;;;5028267;28;20214;-67
2023/08/03 13:26:04;;;;;;;5.85;5.30;;;;;;;;;;5027396;28;20228;-66
2023/08/03 13:28:31;;;;;;;6.55;5.05;;;;;;;;;;5014174;28;20253;-66